Time;durP1;ratioP1;P1;durP2;ratioP2;P2;SDS_P1;SDS_P2;PMS_P1;PMS_P2;Temp;Humidity;BMP_temperature;BMP_pressure;BME280_temperature;BME280_humidity;BME280_pressure;Samples;Min_cycle;Max_cycle;Signal;HPM_P1;HPM_P2
2022/08/23 00:01:49;;;;;;;5.93;4.03;;;21.50;76.00;;;;;;4393293;32;19967;-68
2022/08/23 00:04:18;;;;;;;6.07;3.80;;;21.30;77.60;;;;;;4378205;32;20004;-68
2022/08/23 00:06:47;;;;;;;6.62;3.75;;;21.20;77.60;;;;;;4392838;32;19975;-69
2022/08/23 00:09:14;;;;;;;6.37;3.55;;;21.10;79.00;;;;;;4394907;32;19999;-69
2022/08/23 00:11:46;;;;;;;5.53;3.62;;;20.80;80.00;;;;;;4396280;32;20127;-69
2022/08/23 00:14:16;;;;;;;6.55;4.30;;;20.80;80.20;;;;;;4390706;32;20004;-69
2022/08/23 00:16:44;;;;;;;4.78;3.50;;;20.60;81.70;;;;;;4393393;32;20001;-69
2022/08/23 00:19:13;;;;;;;6.32;3.67;;;20.50;82.20;;;;;;4393624;32;19994;-69
2022/08/23 00:21:40;;;;;;;6.85;3.87;;;20.50;82.20;;;;;;4386345;32;20001;-69
2022/08/23 00:24:10;;;;;;;6.97;4.18;;;20.50;82.30;;;;;;4398664;32;19966;-70
2022/08/23 00:26:51;;;;;;;6.90;3.72;;;20.50;83.20;;;;;;4392004;32;20116;-70
2022/08/23 00:29:19;;;;;;;5.55;3.67;;;20.10;85.40;;;;;;4385170;32;20105;-69
2022/08/23 00:31:46;;;;;;;6.43;3.67;;;19.90;87.40;;;;;;4390791;32;19995;-69
2022/08/23 00:34:13;;;;;;;5.90;3.92;;;19.80;90.00;;;;;;4392914;32;19983;-69
2022/08/23 00:36:40;;;;;;;5.20;3.60;;;19.60;90.60;;;;;;4393989;32;19992;-68
2022/08/23 00:39:07;;;;;;;4.65;3.45;;;19.50;91.40;;;;;;4388974;32;19965;-68
2022/08/23 00:41:35;;;;;;;7.10;3.83;;;19.50;92.30;;;;;;4405308;32;19987;-68
2022/08/23 00:49:47;;;;;;;5.03;3.50;;;19.10;96.20;;;;;;4396866;32;19988;-69
2022/08/23 00:52:19;;;;;;;5.57;3.45;;;18.90;97.30;;;;;;4398875;32;19969;-69
2022/08/23 00:54:47;;;;;;;4.22;3.50;;;18.90;98.50;;;;;;4387268;32;20017;-69
2022/08/23 00:57:18;;;;;;;6.03;3.55;;;18.90;99.80;;;;;;4388044;32;19998;-69
2022/08/23 00:59:46;;;;;;;5.75;4.15;;;18.80;99.90;;;;;;4390407;32;19996;-69
2022/08/23 01:02:14;;;;;;;7.32;4.00;;;18.70;99.90;;;;;;4391930;32;19992;-69
2022/08/23 01:04:45;;;;;;;4.07;3.53;;;18.60;99.90;;;;;;4397022;32;19959;-70
2022/08/23 01:07:21;;;;;;;4.90;4.00;;;18.60;99.90;;;;;;4395229;32;20071;-70
2022/08/23 01:09:49;;;;;;;5.78;3.60;;;18.60;99.90;;;;;;4394402;32;19975;-70
2022/08/23 01:12:22;;;;;;;6.05;3.97;;;18.50;99.90;;;;;;4392933;32;20010;-70
2022/08/23 01:14:57;;;;;;;5.50;3.92;;;18.50;99.90;;;;;;4391006;32;19976;-70
2022/08/23 01:17:28;;;;;;;6.37;3.92;;;18.50;99.90;;;;;;4401529;32;20041;-70
2022/08/23 01:19:58;;;;;;;5.93;4.12;;;18.30;99.90;;;;;;4383905;32;19989;-71
2022/08/23 01:22:33;;;;;;;6.37;3.75;;;18.30;99.90;;;;;;4393107;32;19998;-70
2022/08/23 01:25:04;;;;;;;5.87;3.80;;;18.20;99.90;;;;;;4388991;32;19964;-69
2022/08/23 01:27:31;;;;;;;5.45;3.90;;;18.20;99.90;;;;;;4384615;32;19979;-70
2022/08/23 01:29:57;;;;;;;6.80;3.65;;;18.30;99.90;;;;;;4397397;32;20057;-70
2022/08/23 01:32:24;;;;;;;5.62;3.70;;;18.20;99.90;;;;;;4393339;32;19992;-70
2022/08/23 01:34:51;;;;;;;6.15;4.28;;;18.10;99.90;;;;;;4390579;32;19964;-69
2022/08/23 01:37:19;;;;;;;6.12;4.50;;;18.30;99.90;;;;;;4393948;32;20017;-69
2022/08/23 01:39:46;;;;;;;6.47;4.43;;;18.30;99.90;;;;;;4393434;32;19998;-70
2022/08/23 01:42:15;;;;;;;6.65;4.68;;;18.30;99.90;;;;;;4386546;32;19958;-69
2022/08/23 01:44:41;;;;;;;7.78;6.68;;;18.20;99.90;;;;;;4384906;32;19975;-69
2022/08/23 01:47:08;;;;;;;12.10;9.98;;;18.10;99.90;;;;;;4387506;32;20069;-70
2022/08/23 01:49:35;;;;;;;16.83;12.50;;;18.10;99.90;;;;;;4384088;32;19966;-69
2022/08/23 01:52:02;;;;;;;18.37;13.75;;;18.10;99.90;;;;;;4386188;32;19992;-69
2022/08/23 01:54:29;;;;;;;18.85;15.20;;;18.00;99.90;;;;;;4386054;32;20001;-69
2022/08/23 01:56:56;;;;;;;14.98;13.20;;;18.10;99.90;;;;;;4399050;32;20054;-69
2022/08/23 01:59:24;;;;;;;19.20;13.30;;;18.10;99.90;;;;;;4389581;32;19961;-70
2022/08/23 02:01:52;;;;;;;14.98;11.75;;;18.10;99.90;;;;;;4391609;32;20076;-70
2022/08/23 02:04:21;;;;;;;13.32;11.52;;;18.00;99.90;;;;;;4398086;32;19966;-70
2022/08/23 02:06:47;;;;;;;11.75;10.52;;;18.00;99.90;;;;;;4383360;32;19962;-70
2022/08/23 02:09:14;;;;;;;13.73;12.27;;;17.90;99.90;;;;;;4389094;32;19961;-69
2022/08/23 02:11:42;;;;;;;9.80;7.60;;;17.90;99.90;;;;;;4395207;32;19993;-70
2022/08/23 02:14:12;;;;;;;6.70;5.72;;;17.80;99.90;;;;;;4401844;32;19992;-70
2022/08/23 02:16:44;;;;;;;6.72;5.15;;;17.80;99.90;;;;;;4402751;32;19964;-70
2022/08/23 02:19:12;;;;;;;5.55;4.60;;;17.80;99.90;;;;;;4404332;32;19994;-70
2022/08/23 02:21:41;;;;;;;6.35;4.60;;;17.80;99.90;;;;;;4389315;32;19992;-70
2022/08/23 02:24:11;;;;;;;5.62;4.28;;;17.80;99.90;;;;;;4392057;32;19997;-70
2022/08/23 02:26:42;;;;;;;5.87;4.07;;;17.70;99.90;;;;;;4387568;32;19989;-70
2022/08/23 02:29:09;;;;;;;5.05;3.80;;;17.80;99.90;;;;;;4385847;32;19968;-70
2022/08/23 02:31:36;;;;;;;7.25;4.03;;;17.80;99.90;;;;;;4395120;32;19975;-70
2022/08/23 02:34:04;;;;;;;6.28;4.37;;;17.70;99.90;;;;;;4392104;32;20120;-70
2022/08/23 02:36:32;;;;;;;7.00;4.37;;;17.60;99.90;;;;;;4396407;32;19989;-70
2022/08/23 02:38:59;;;;;;;5.85;4.20;;;17.60;99.90;;;;;;4395404;32;19964;-70
2022/08/23 02:41:25;;;;;;;5.57;3.80;;;17.30;99.90;;;;;;4394175;32;19992;-70
2022/08/23 02:43:53;;;;;;;5.57;3.80;;;17.30;99.90;;;;;;4390217;32;20132;-70
2022/08/23 02:46:20;;;;;;;5.95;4.05;;;17.20;99.90;;;;;;4393289;32;20132;-70
2022/08/23 02:48:47;;;;;;;7.40;4.22;;;17.20;99.90;;;;;;4387935;32;19994;-70
2022/08/23 02:51:16;;;;;;;6.97;5.18;;;17.50;99.90;;;;;;4393656;32;19977;-70
2022/08/23 02:53:43;;;;;;;7.60;5.32;;;17.40;99.90;;;;;;4402137;32;19966;-70
2022/08/23 02:56:11;;;;;;;10.02;4.57;;;17.30;99.90;;;;;;4392005;32;19998;-70
2022/08/23 02:58:38;;;;;;;7.45;3.62;;;17.20;99.90;;;;;;4383410;32;19993;-70
2022/08/23 03:01:06;;;;;;;6.90;4.03;;;17.30;99.90;;;;;;4389596;32;19975;-69
2022/08/23 03:03:32;;;;;;;5.43;3.97;;;17.40;99.90;;;;;;4392310;32;19968;-70
2022/08/23 03:05:59;;;;;;;6.18;4.28;;;17.40;99.90;;;;;;4390146;32;19983;-69
2022/08/23 03:08:27;;;;;;;5.78;4.45;;;17.40;99.90;;;;;;4392274;32;20131;-69
2022/08/23 03:10:54;;;;;;;5.70;4.07;;;17.30;99.90;;;;;;4393635;32;19962;-69
2022/08/23 03:13:21;;;;;;;6.78;4.40;;;17.20;99.90;;;;;;4391642;32;19966;-69
2022/08/23 03:15:47;;;;;;;5.35;3.92;;;17.10;99.90;;;;;;4393173;32;19992;-69
2022/08/23 03:18:15;;;;;;;5.20;3.87;;;17.00;99.90;;;;;;4388528;32;20022;-70
2022/08/23 03:20:42;;;;;;;6.55;3.65;;;17.20;99.90;;;;;;4385840;32;20110;-69
2022/08/23 03:23:09;;;;;;;4.97;3.97;;;17.40;99.90;;;;;;4389452;32;19988;-69
2022/08/23 03:25:38;;;;;;;7.03;4.18;;;17.50;99.90;;;;;;4387143;32;19969;-69
2022/08/23 03:28:06;;;;;;;6.45;4.95;;;17.20;99.90;;;;;;4393611;32;20027;-70
2022/08/23 03:30:33;;;;;;;5.75;4.57;;;17.00;99.90;;;;;;4398712;32;20049;-70
2022/08/23 03:33:00;;;;;;;6.22;4.22;;;16.80;99.90;;;;;;4389453;32;19963;-69
2022/08/23 03:35:27;;;;;;;9.50;4.68;;;16.70;99.90;;;;;;4383336;32;19980;-70
2022/08/23 03:37:54;;;;;;;6.55;4.35;;;16.70;99.90;;;;;;4394715;32;19984;-69
2022/08/23 03:40:22;;;;;;;5.10;3.83;;;16.70;99.90;;;;;;4390882;32;19995;-69
2022/08/23 03:42:50;;;;;;;4.87;3.70;;;16.70;99.90;;;;;;4379628;32;20107;-69
2022/08/23 03:45:18;;;;;;;8.38;4.40;;;16.60;99.90;;;;;;4390630;32;20002;-69
2022/08/23 03:47:44;;;;;;;6.45;3.60;;;16.60;99.90;;;;;;4388892;32;19989;-69
2022/08/23 03:50:11;;;;;;;6.43;4.18;;;16.60;99.90;;;;;;4398786;32;19995;-69
2022/08/23 03:52:38;;;;;;;5.80;3.65;;;16.70;99.90;;;;;;4396438;32;19961;-68
2022/08/23 03:55:06;;;;;;;5.55;4.12;;;16.80;99.90;;;;;;4386178;32;20015;-69
2022/08/23 03:57:33;;;;;;;4.47;3.60;;;16.70;99.90;;;;;;4392728;32;19990;-69
2022/08/23 04:00:01;;;;;;;5.72;3.53;;;16.60;99.90;;;;;;4385072;32;20693;-68
2022/08/23 04:02:28;;;;;;;6.07;3.65;;;16.80;99.90;;;;;;4390862;32;19979;-68
2022/08/23 04:04:56;;;;;;;8.48;3.75;;;17.00;99.90;;;;;;4390813;32;19975;-68
2022/08/23 04:07:23;;;;;;;6.62;3.65;;;16.90;99.90;;;;;;4394495;32;19964;-69
2022/08/23 04:09:50;;;;;;;5.03;3.53;;;16.70;99.90;;;;;;4381796;32;20014;-68
2022/08/23 04:12:17;;;;;;;5.47;3.78;;;16.70;99.90;;;;;;4380911;32;20107;-68
2022/08/23 04:14:44;;;;;;;5.30;3.65;;;16.50;99.90;;;;;;4393108;32;19997;-69
2022/08/23 04:17:12;;;;;;;6.03;3.70;;;16.50;99.90;;;;;;4385222;32;19961;-68
2022/08/23 04:19:39;;;;;;;6.15;3.70;;;16.60;99.90;;;;;;4388238;32;19964;-69
2022/08/23 04:22:10;;;;;;;8.98;4.03;;;16.70;99.90;;;;;;4399390;32;19989;-70
2022/08/23 04:24:38;;;;;;;5.85;3.53;;;16.70;99.90;;;;;;4386474;32;19972;-68
2022/08/23 04:27:05;;;;;;;4.70;3.47;;;16.80;99.90;;;;;;4388364;32;19975;-68
2022/08/23 04:29:32;;;;;;;6.43;3.55;;;16.80;99.90;;;;;;4385674;32;19989;-68
2022/08/23 04:31:59;;;;;;;5.00;4.00;;;16.70;99.90;;;;;;4382269;32;19976;-68
2022/08/23 04:34:27;;;;;;;5.50;3.87;;;16.50;99.90;;;;;;4391217;32;20051;-68
2022/08/23 04:36:54;;;;;;;7.03;3.80;;;16.30;99.90;;;;;;4390310;32;20121;-68
2022/08/23 04:39:21;;;;;;;8.00;3.45;;;16.30;99.90;;;;;;4391362;32;19991;-68
2022/08/23 04:44:32;;;;;;;8.55;3.97;;;16.60;99.90;;;;;;4392271;32;19965;-68
2022/08/23 04:46:59;;;;;;;5.78;3.40;;;16.80;99.90;;;;;;4399791;32;19972;-68
2022/08/23 04:49:27;;;;;;;7.50;4.28;;;16.80;99.90;;;;;;4395923;32;20043;-68
2022/08/23 04:51:54;;;;;;;6.55;4.00;;;16.60;99.90;;;;;;4400446;32;19991;-68
2022/08/23 04:54:22;;;;;;;6.68;3.80;;;16.60;99.90;;;;;;4386695;32;19987;-70
2022/08/23 04:56:48;;;;;;;6.10;4.47;;;16.50;99.90;;;;;;4397353;32;19973;-69
2022/08/23 04:59:15;;;;;;;7.55;4.20;;;16.50;99.90;;;;;;4389829;32;20004;-69
2022/08/23 05:01:42;;;;;;;7.35;3.42;;;16.50;99.90;;;;;;4396460;32;20043;-69
2022/08/23 05:04:09;;;;;;;4.62;3.20;;;16.50;99.90;;;;;;4389984;32;19962;-69
2022/08/23 05:06:38;;;;;;;7.70;3.35;;;16.50;99.90;;;;;;4391664;32;19961;-69
2022/08/23 05:09:05;;;;;;;9.00;4.07;;;16.70;99.90;;;;;;4389627;32;19999;-68
2022/08/23 05:11:32;;;;;;;6.22;3.62;;;16.80;99.90;;;;;;4392048;32;20002;-69
2022/08/23 05:13:59;;;;;;;4.90;3.60;;;16.80;99.90;;;;;;4396142;32;19997;-69
2022/08/23 05:16:26;;;;;;;6.55;3.80;;;16.80;99.90;;;;;;4395062;32;19993;-69
2022/08/23 05:18:52;;;;;;;5.65;3.97;;;16.80;99.90;;;;;;4386502;32;20024;-69
2022/08/23 05:21:21;;;;;;;5.43;3.90;;;16.70;99.90;;;;;;4396289;32;19994;-68
2022/08/23 05:23:50;;;;;;;6.57;4.57;;;16.70;99.90;;;;;;4392486;32;19979;-69
2022/08/23 05:26:16;;;;;;;4.65;3.78;;;16.70;99.90;;;;;;4379987;32;19975;-69
2022/08/23 05:28:46;;;;;;;4.93;3.70;;;16.80;99.90;;;;;;4380931;32;19990;-69
2022/08/23 05:31:16;;;;;;;6.60;4.18;;;16.90;99.90;;;;;;4396879;32;19964;-69
2022/08/23 05:33:43;;;;;;;8.23;4.43;;;17.00;99.90;;;;;;4395588;32;20017;-69
2022/08/23 05:36:12;;;;;;;6.80;4.07;;;17.10;99.90;;;;;;4391727;32;19963;-69
2022/08/23 05:38:40;;;;;;;6.10;3.22;;;17.10;99.90;;;;;;4390220;32;19998;-69
2022/08/23 05:41:08;;;;;;;6.65;3.45;;;17.10;99.90;;;;;;4397150;32;19987;-69
2022/08/23 05:43:36;;;;;;;6.75;3.87;;;17.30;99.90;;;;;;4397623;32;19991;-69
2022/08/23 05:46:04;;;;;;;5.70;3.53;;;17.40;99.90;;;;;;4395498;32;19961;-69
2022/08/23 05:48:32;;;;;;;5.72;3.30;;;17.50;99.90;;;;;;4392302;32;19959;-69
2022/08/23 05:51:08;;;;;;;9.52;3.78;;;17.70;99.90;;;;;;4389668;32;20002;-69
2022/08/23 05:53:35;;;;;;;8.57;3.58;;;17.90;99.90;;;;;;4383408;32;19968;-69
2022/08/23 05:56:11;;;;;;;6.05;3.45;;;18.00;99.90;;;;;;4388183;32;19966;-69
2022/08/23 05:58:38;;;;;;;4.50;3.15;;;18.30;99.90;;;;;;4396543;32;19981;-69
2022/08/23 06:01:05;;;;;;;6.07;4.05;;;18.40;99.90;;;;;;4393685;32;19987;-69
2022/08/23 06:03:32;;;;;;;7.75;4.10;;;18.60;99.90;;;;;;4391200;32;19981;-69
2022/08/23 06:05:59;;;;;;;7.30;3.97;;;18.50;99.90;;;;;;4390266;32;20005;-69
2022/08/23 06:08:26;;;;;;;6.22;3.28;;;18.70;99.90;;;;;;4385695;32;19964;-69
2022/08/23 06:11:00;;;;;;;5.30;3.70;;;18.90;99.90;;;;;;4391061;32;19959;-69
2022/08/23 06:13:28;;;;;;;5.97;3.25;;;19.00;99.90;;;;;;4393888;32;19968;-69
2022/08/23 06:15:55;;;;;;;5.87;3.20;;;19.10;99.90;;;;;;4397458;32;19963;-69
2022/08/23 06:18:22;;;;;;;5.97;3.75;;;19.40;99.90;;;;;;4395564;32;20017;-69
2022/08/23 06:20:49;;;;;;;6.60;3.28;;;20.20;99.90;;;;;;4393984;32;20091;-69
2022/08/23 06:23:15;;;;;;;6.57;3.10;;;21.40;99.90;;;;;;4390741;32;19961;-69
2022/08/23 06:25:42;;;;;;;4.62;3.20;;;22.80;99.90;;;;;;4399404;32;19985;-69
2022/08/23 06:28:09;;;;;;;8.50;3.35;;;23.70;96.00;;;;;;4392114;32;20075;-69
2022/08/23 06:30:38;;;;;;;4.85;2.80;;;24.40;94.70;;;;;;4395875;32;20039;-69
2022/08/23 06:33:05;;;;;;;5.90;2.60;;;25.70;94.20;;;;;;4381321;32;19987;-69
2022/08/23 06:35:32;;;;;;;7.05;3.17;;;26.70;90.10;;;;;;4401075;32;19989;-69
2022/08/23 06:37:58;;;;;;;5.95;3.40;;;27.40;85.30;;;;;;4395988;32;20009;-70
2022/08/23 06:40:27;;;;;;;5.60;2.80;;;28.30;85.00;;;;;;4386461;32;20151;-70
2022/08/23 06:42:54;;;;;;;3.83;2.62;;;29.30;77.70;;;;;;4390083;32;19961;-70
2022/08/23 06:45:21;;;;;;;4.82;2.95;;;29.60;75.00;;;;;;4399916;32;20013;-71
2022/08/23 06:47:49;;;;;;;6.12;3.33;;;29.10;75.90;;;;;;4395958;32;19981;-69
2022/08/23 06:50:18;;;;;;;6.43;3.17;;;29.30;73.40;;;;;;4398667;32;19996;-70
2022/08/23 06:52:47;;;;;;;6.68;3.80;;;28.70;74.90;;;;;;4395239;32;19959;-71
2022/08/23 06:55:13;;;;;;;6.45;3.28;;;29.40;74.40;;;;;;4393518;32;19999;-70
2022/08/23 06:57:40;;;;;;;5.68;3.37;;;30.00;72.20;;;;;;4395031;32;19964;-70
2022/08/23 07:00:09;;;;;;;6.53;3.83;;;30.00;71.60;;;;;;4391798;32;20071;-70
2022/08/23 07:02:36;;;;;;;5.10;3.30;;;30.70;69.00;;;;;;4394321;32;19961;-70
2022/08/23 07:05:05;;;;;;;7.87;3.45;;;30.80;68.90;;;;;;4393537;32;20027;-70
2022/08/23 07:07:32;;;;;;;6.95;3.00;;;30.90;68.40;;;;;;4399543;32;19987;-70
2022/08/23 07:09:59;;;;;;;4.60;3.15;;;30.50;68.20;;;;;;4391230;32;20023;-70
2022/08/23 07:12:25;;;;;;;5.07;3.30;;;30.50;68.30;;;;;;4392329;32;19959;-70
2022/08/23 07:14:52;;;;;;;8.90;3.58;;;30.20;68.80;;;;;;4394345;32;19988;-69
2022/08/23 07:17:19;;;;;;;7.05;3.47;;;30.40;68.30;;;;;;4388781;32;20033;-70
2022/08/23 07:19:46;;;;;;;6.47;3.53;;;30.30;67.10;;;;;;4383214;32;19982;-71
2022/08/23 07:22:14;;;;;;;4.82;3.22;;;30.20;64.90;;;;;;4398006;32;20119;-70
2022/08/23 07:24:41;;;;;;;7.40;3.87;;;30.60;65.80;;;;;;4397185;32;20011;-70
2022/08/23 07:27:08;;;;;;;9.90;4.20;;;30.50;65.30;;;;;;4388958;32;19984;-70
2022/08/23 07:29:36;;;;;;;8.13;3.25;;;31.00;65.90;;;;;;4392122;32;19970;-71
2022/08/23 07:32:04;;;;;;;6.82;3.03;;;30.90;65.80;;;;;;4393471;32;19996;-70
2022/08/23 07:34:30;;;;;;;6.65;3.60;;;31.00;64.80;;;;;;4395364;32;19992;-70
2022/08/23 07:36:57;;;;;;;4.78;3.30;;;30.60;65.50;;;;;;4400590;32;20125;-70
2022/08/23 07:39:25;;;;;;;7.82;3.55;;;29.80;68.60;;;;;;4396521;32;19991;-70
2022/08/23 07:41:52;;;;;;;7.05;3.12;;;30.20;67.70;;;;;;4399736;32;19959;-70
2022/08/23 07:44:20;;;;;;;7.00;3.55;;;30.40;67.30;;;;;;4393693;32;20059;-71
2022/08/23 07:46:47;;;;;;;5.28;3.45;;;29.80;68.80;;;;;;4390875;32;20101;-70
2022/08/23 07:49:15;;;;;;;5.15;3.20;;;30.10;67.60;;;;;;4389465;32;19968;-70
2022/08/23 07:51:46;;;;;;;5.87;3.10;;;30.00;68.90;;;;;;4391783;32;19978;-70
2022/08/23 07:54:13;;;;;;;5.55;3.10;;;30.40;68.40;;;;;;4396611;32;19993;-69
2022/08/23 07:56:41;;;;;;;5.55;2.90;;;30.60;65.90;;;;;;4387789;32;19982;-69
2022/08/23 07:59:09;;;;;;;7.05;3.05;;;30.30;66.80;;;;;;4397173;32;19961;-69
2022/08/23 08:01:36;;;;;;;5.80;3.00;;;30.40;66.30;;;;;;4395965;32;19971;-69
2022/08/23 08:04:05;;;;;;;6.25;3.20;;;30.40;67.40;;;;;;4387961;32;19998;-69
2022/08/23 08:06:34;;;;;;;7.45;3.30;;;30.60;67.00;;;;;;4396320;32;19988;-69
2022/08/23 08:09:01;;;;;;;5.95;3.05;;;30.90;66.10;;;;;;4402008;32;20017;-69
2022/08/23 08:11:30;;;;;;;5.00;2.55;;;30.40;66.90;;;;;;4387855;32;19961;-69
2022/08/23 08:13:58;;;;;;;4.93;2.62;;;30.90;64.70;;;;;;4396214;32;19966;-69
2022/08/23 08:16:28;;;;;;;6.85;3.40;;;31.00;65.10;;;;;;4394147;32;19984;-69
2022/08/23 08:18:55;;;;;;;6.43;3.53;;;31.20;63.90;;;;;;4397710;32;20022;-69
2022/08/23 08:21:22;;;;;;;8.18;3.55;;;31.40;66.10;;;;;;4394264;32;19991;-69
2022/08/23 08:23:49;;;;;;;4.43;2.60;;;31.60;63.00;;;;;;4385381;32;20007;-69
2022/08/23 08:26:16;;;;;;;5.28;2.80;;;32.30;62.00;;;;;;4389344;32;20100;-69
2022/08/23 08:28:44;;;;;;;4.65;2.62;;;32.60;62.80;;;;;;4383654;32;19969;-69
2022/08/23 08:31:13;;;;;;;7.87;2.95;;;33.00;61.70;;;;;;4389916;32;19986;-70
2022/08/23 08:33:40;;;;;;;6.18;2.78;;;33.10;61.10;;;;;;4387753;32;19996;-69
2022/08/23 08:36:08;;;;;;;4.60;2.70;;;33.40;60.00;;;;;;4389521;32;19989;-70
2022/08/23 08:38:38;;;;;;;5.25;2.50;;;32.80;60.50;;;;;;4387787;32;19991;-70
2022/08/23 08:41:11;;;;;;;6.37;3.03;;;33.70;58.30;;;;;;4392307;32;20023;-70
2022/08/23 08:43:50;;;;;;;5.07;2.60;;;33.80;57.50;;;;;;4391323;32;19991;-70
2022/08/23 08:46:26;;;;;;;4.55;2.85;;;34.20;58.30;;;;;;4390249;32;20074;-70
2022/08/23 08:48:59;;;;;;;4.65;3.30;;;34.00;58.90;;;;;;4383857;32;19994;-70
2022/08/23 08:51:44;;;;;;;5.87;2.75;;;33.80;55.30;;;;;;4395184;32;19961;-70
2022/08/23 08:54:14;;;;;;;5.90;2.85;;;35.00;57.30;;;;;;4386609;32;19967;-70
2022/08/23 08:56:45;;;;;;;6.37;2.80;;;35.40;56.90;;;;;;4387792;32;19975;-71
2022/08/23 08:59:19;;;;;;;4.55;2.60;;;35.10;54.00;;;;;;4383592;32;20057;-70
2022/08/23 09:01:47;;;;;;;6.62;2.72;;;35.10;52.90;;;;;;4400943;32;20107;-71
2022/08/23 09:04:14;;;;;;;7.45;2.50;;;35.90;54.90;;;;;;4383126;32;19961;-71
2022/08/23 09:06:51;;;;;;;4.82;2.17;;;36.00;54.40;;;;;;4392941;32;20137;-71
2022/08/23 09:09:33;;;;;;;7.50;2.92;;;35.80;51.40;;;;;;4381706;32;19993;-71
2022/08/23 09:12:10;;;;;;;5.22;2.67;;;35.40;52.30;;;;;;4391345;32;19984;-71
2022/08/23 09:14:58;;;;;;;3.95;2.53;;;36.40;54.20;;;;;;4385307;32;19995;-71
2022/08/23 09:17:37;;;;;;;7.07;2.67;;;36.50;52.90;;;;;;4390773;32;19998;-70
2022/08/23 09:20:07;;;;;;;5.97;2.62;;;35.90;52.80;;;;;;4385563;32;19975;-71
2022/08/23 09:22:39;;;;;;;5.25;2.47;;;36.70;51.50;;;;;;4393589;32;20123;-71
2022/08/23 09:25:09;;;;;;;4.10;2.40;;;37.70;50.90;;;;;;4381780;32;20039;-70
2022/08/23 09:27:37;;;;;;;3.87;2.40;;;37.40;50.60;;;;;;4390007;32;20008;-71
2022/08/23 09:30:05;;;;;;;4.62;2.70;;;37.60;49.20;;;;;;4392634;32;19987;-70
2022/08/23 09:32:36;;;;;;;6.50;2.62;;;38.30;48.50;;;;;;4391513;32;19990;-71
2022/08/23 09:35:12;;;;;;;4.28;2.03;;;38.00;49.40;;;;;;4392700;32;20069;-71
2022/08/23 09:37:55;;;;;;;6.53;2.30;;;38.40;47.40;;;;;;4392464;32;20009;-70
2022/08/23 09:40:35;;;;;;;5.90;2.78;;;39.00;46.80;;;;;;4389426;32;19975;-71
2022/08/23 09:43:07;;;;;;;6.10;2.83;;;40.00;45.80;;;;;;4395001;32;19973;-71
2022/08/23 09:45:36;;;;;;;4.47;2.67;;;39.00;45.40;;;;;;4394310;32;19989;-70
2022/08/23 09:48:06;;;;;;;4.25;2.35;;;40.20;46.50;;;;;;4398559;32;19994;-70
2022/08/23 09:50:37;;;;;;;4.18;2.37;;;40.90;45.60;;;;;;4394789;32;19976;-70
2022/08/23 09:53:08;;;;;;;5.45;2.58;;;39.90;49.60;;;;;;4404474;32;19971;-71
2022/08/23 09:55:37;;;;;;;5.65;2.70;;;40.90;43.60;;;;;;4389076;32;20073;-70
2022/08/23 09:58:07;;;;;;;4.60;2.60;;;41.30;45.00;;;;;;4394860;32;20006;-70
2022/08/23 10:00:35;;;;;;;6.25;2.72;;;;;;;;;;4386283;32;19959;-70
2022/08/23 10:03:25;;;;;;;4.65;2.58;;;41.40;42.70;;;;;;4394617;32;19990;-70
2022/08/23 10:05:54;;;;;;;5.45;2.60;;;43.00;43.30;;;;;;4393646;32;19994;-71
2022/08/23 10:08:24;;;;;;;4.18;2.22;;;40.40;41.00;;;;;;4395452;32;20076;-70
2022/08/23 10:10:53;;;;;;;5.90;2.75;;;40.20;41.70;;;;;;4391137;32;19961;-70
2022/08/23 10:13:20;;;;;;;6.18;2.60;;;41.40;42.10;;;;;;4395015;32;19975;-70
2022/08/23 10:15:56;;;;;;;3.25;2.40;;;41.40;44.30;;;;;;4384536;32;19966;-70
2022/08/23 10:18:35;;;;;;;4.72;2.75;;;42.40;42.00;;;;;;4400740;32;19984;-71
2022/08/23 10:21:06;;;;;;;4.80;2.50;;;43.60;42.70;;;;;;4394812;32;19978;-70
2022/08/23 10:23:43;;;;;;;4.93;2.90;;;42.30;40.30;;;;;;4397445;32;19993;-71
2022/08/23 10:26:21;;;;;;;7.10;2.53;;;42.10;42.60;;;;;;4396849;32;19995;-71
2022/08/23 10:31:47;;;;;;;5.70;2.65;;;42.10;42.30;;;;;;4397193;32;20119;-71
2022/08/23 10:34:27;;;;;;;5.82;2.50;;;43.90;41.20;;;;;;4398315;32;19973;-71
2022/08/23 10:37:13;;;;;;;5.22;2.60;;;42.40;42.60;;;;;;4394120;32;19992;-71
2022/08/23 10:39:46;;;;;;;3.80;2.58;;;43.60;41.50;;;;;;4397523;32;20014;-71
2022/08/23 10:42:21;;;;;;;6.65;2.90;;;43.80;38.90;;;;;;4396067;32;19961;-71
2022/08/23 10:44:57;;;;;;;4.62;2.55;;;44.20;39.90;;;;;;4394800;32;20141;-71
2022/08/23 10:47:30;;;;;;;3.78;2.55;;;;;;;;;;4383484;32;20026;-71
2022/08/23 10:50:00;;;;;;;5.12;2.58;;;;;;;;;;4406094;32;19975;-70
2022/08/23 10:52:33;;;;;;;6.87;2.70;;;41.00;43.10;;;;;;4393814;32;20004;-71
2022/08/23 10:55:05;;;;;;;3.80;2.60;;;;;;;;;;4401298;32;19993;-71
2022/08/23 10:57:35;;;;;;;6.03;2.72;;;37.90;44.00;;;;;;4395576;32;19968;-70
2022/08/23 11:00:06;;;;;;;4.87;2.62;;;38.00;45.30;;;;;;4390222;32;19991;-70
2022/08/23 11:02:41;;;;;;;5.00;2.53;;;37.80;48.70;;;;;;4400161;32;19989;-70
2022/08/23 11:05:24;;;;;;;7.00;2.80;;;38.90;45.00;;;;;;4400166;32;20027;-69
2022/08/23 11:08:00;;;;;;;7.75;3.30;;;39.40;46.40;;;;;;4397431;32;19997;-69
2022/08/23 11:10:33;;;;;;;4.85;2.95;;;39.40;45.90;;;;;;4403346;32;19968;-71
2022/08/23 11:13:05;;;;;;;5.57;2.42;;;40.80;43.90;;;;;;4392781;32;19990;-71
2022/08/23 11:15:40;;;;;;;7.62;2.70;;;41.10;45.40;;;;;;4381608;32;19975;-70
2022/08/23 11:18:08;;;;;;;7.10;2.78;;;41.50;42.00;;;;;;4406616;32;19963;-70
2022/08/23 11:21:12;;;;;;;6.07;2.65;;;42.40;41.60;;;;;;4405391;32;19987;-70
2022/08/23 11:23:53;;;;;;;4.80;2.87;;;43.40;41.50;;;;;;4374972;32;19995;-71
2022/08/23 11:27:06;;;;;;;3.97;2.55;;;41.20;39.00;;;;;;4391145;32;20031;-70
2022/08/23 11:29:40;;;;;;;5.22;2.72;;;43.00;41.30;;;;;;4390991;32;19963;-70
2022/08/23 11:32:26;;;;;;;5.37;2.80;;;43.80;41.00;;;;;;4385088;32;20044;-70
2022/08/23 11:35:04;;;;;;;6.03;2.50;;;43.70;39.30;;;;;;4390981;32;20112;-71
2022/08/23 11:37:49;;;;;;;5.25;2.65;;;43.30;39.60;;;;;;4388709;32;19996;-70
2022/08/23 11:40:37;;;;;;;4.00;2.80;;;43.90;40.20;;;;;;4398669;32;19995;-70
2022/08/23 11:43:09;;;;;;;4.97;2.62;;;44.10;40.50;;;;;;4389453;32;19962;-70
2022/08/23 11:45:45;;;;;;;4.18;2.42;;;43.70;39.20;;;;;;4397060;32;19977;-70
2022/08/23 11:48:15;;;;;;;3.00;2.45;;;42.80;38.70;;;;;;4387879;32;19988;-70
2022/08/23 11:51:02;;;;;;;4.05;2.78;;;43.40;38.00;;;;;;4380357;32;19973;-70
2022/08/23 11:53:49;;;;;;;6.12;2.58;;;42.60;37.40;;;;;;4390333;32;19986;-70
2022/08/23 11:56:32;;;;;;;7.22;3.12;;;44.00;38.70;;;;;;4394339;32;19972;-70
2022/08/23 11:59:28;;;;;;;3.85;2.75;;;44.30;38.90;;;;;;4382670;32;19968;-70
2022/08/23 12:01:56;;;;;;;4.18;2.65;;;42.40;37.30;;;;;;4387742;32;19968;-70
2022/08/23 12:04:33;;;;;;;5.30;2.70;;;42.60;38.40;;;;;;4393409;32;19968;-69
2022/08/23 12:07:05;;;;;;;4.45;2.60;;;41.80;39.00;;;;;;4392431;32;20130;-70
2022/08/23 12:09:56;;;;;;;4.65;2.72;;;39.10;42.00;;;;;;4383457;32;19966;-69
2022/08/23 12:12:38;;;;;;;4.07;2.87;;;39.60;43.60;;;;;;4392695;32;19961;-70
2022/08/23 12:15:07;;;;;;;5.65;3.40;;;39.20;43.80;;;;;;4382648;32;20110;-70
2022/08/23 12:18:11;;;;;;;5.12;3.20;;;38.10;44.90;;;;;;4398590;32;19974;-70
2022/08/23 12:20:39;;;;;;;4.30;2.75;;;37.60;46.10;;;;;;4380416;32;19976;-70
2022/08/23 12:23:19;;;;;;;4.72;2.90;;;37.20;44.70;;;;;;4387269;32;19985;-70
2022/08/23 12:25:46;;;;;;;7.20;2.72;;;36.90;46.00;;;;;;4392254;32;19977;-69
2022/08/23 12:28:38;;;;;;;5.00;2.95;;;36.30;47.00;;;;;;4389635;32;19975;-69
2022/08/23 12:31:24;;;;;;;5.07;2.90;;;36.80;46.90;;;;;;4386736;32;19998;-69
2022/08/23 12:34:11;;;;;;;4.82;2.72;;;36.60;46.10;;;;;;4383545;32;20065;-69
2022/08/23 12:36:45;;;;;;;8.15;3.00;;;35.70;45.30;;;;;;4388173;32;19970;-69
2022/08/23 12:39:23;;;;;;;4.07;3.03;;;35.70;47.30;;;;;;4398227;32;19992;-69
2022/08/23 12:41:55;;;;;;;3.80;2.90;;;35.30;45.60;;;;;;4397436;32;20141;-69
2022/08/23 12:44:25;;;;;;;5.87;3.33;;;34.30;48.30;;;;;;4402531;32;19978;-69
2022/08/23 12:46:53;;;;;;;6.55;3.35;;;34.40;46.60;;;;;;4386868;32;19981;-69
2022/08/23 12:49:26;;;;;;;5.80;3.17;;;33.60;50.20;;;;;;4401428;32;19989;-70
2022/08/23 12:51:57;;;;;;;5.87;3.45;;;33.40;48.20;;;;;;4397128;32;19963;-70
2022/08/23 12:54:33;;;;;;;6.82;3.30;;;33.90;51.20;;;;;;4389211;32;19973;-70
2022/08/23 12:57:08;;;;;;;5.03;3.12;;;34.20;50.00;;;;;;4391135;32;19982;-70
2022/08/23 12:59:40;;;;;;;8.05;2.78;;;34.60;47.80;;;;;;4399474;32;20002;-70
2022/08/23 13:02:11;;;;;;;7.53;3.47;;;34.30;48.10;;;;;;4393710;32;19981;-70
2022/08/23 13:04:38;;;;;;;;;;;34.20;47.90;;;;;;4397716;32;19984;-69
2022/08/23 13:07:08;;;;;;;6.62;3.00;;;34.30;48.40;;;;;;4396141;32;19901;-70
2022/08/23 13:09:37;;;;;;;5.97;3.10;;;33.90;48.20;;;;;;4395904;32;20065;-70
2022/08/23 13:12:05;;;;;;;5.35;2.95;;;34.50;48.70;;;;;;4396349;32;19964;-70
2022/08/23 13:14:37;;;;;;;6.10;3.05;;;34.70;48.00;;;;;;4391796;32;19987;-70
2022/08/23 13:17:30;;;;;;;7.20;3.45;;;34.60;47.90;;;;;;4390800;32;20105;-70